Time;durP1;ratioP1;P1;durP2;ratioP2;P2;SDS_P1;SDS_P2;PMS_P1;PMS_P2;Temp;Humidity;BMP_temperature;BMP_pressure;BME280_temperature;BME280_humidity;BME280_pressure;Samples;Min_cycle;Max_cycle;Signal;HPM_P1;HPM_P2
2022/07/29 00:02:18;;;;;;;11.48;3.85;;;;;;;;;;5008660;28;20489;-66
2022/07/29 00:04:44;;;;;;;13.77;4.20;;;;;;;;;;5030331;28;20025;-67
2022/07/29 00:07:10;;;;;;;10.27;3.55;;;;;;;;;;5027956;28;20399;-66
2022/07/29 00:09:36;;;;;;;11.35;3.40;;;;;;;;;;5030454;28;20457;-66
2022/07/29 00:12:03;;;;;;;12.38;3.70;;;;;;;;;;5027685;28;20711;-67
2022/07/29 00:14:29;;;;;;;11.75;3.45;;;;;;;;;;5032004;28;20136;-67
2022/07/29 00:16:55;;;;;;;15.75;4.38;;;;;;;;;;5029197;28;20084;-67
2022/07/29 00:19:21;;;;;;;13.05;3.72;;;;;;;;;;5028517;28;20112;-67
2022/07/29 00:21:47;;;;;;;9.23;3.33;;;;;;;;;;5029514;28;20038;-68
2022/07/29 00:24:13;;;;;;;10.25;3.45;;;;;;;;;;5028700;28;20126;-68
2022/07/29 00:26:39;;;;;;;12.48;3.22;;;;;;;;;;5036167;28;20496;-68
2022/07/29 00:29:06;;;;;;;12.98;3.63;;;;;;;;;;5031722;28;20397;-68
2022/07/29 00:31:32;;;;;;;11.80;3.70;;;;;;;;;;5031616;28;20107;-68
2022/07/29 00:33:58;;;;;;;14.15;3.33;;;;;;;;;;5031814;28;20025;-68
2022/07/29 00:36:24;;;;;;;12.68;3.78;;;;;;;;;;5031076;28;20029;-68
2022/07/29 00:38:51;;;;;;;12.57;3.50;;;;;;;;;;5031667;28;20434;-68
2022/07/29 00:41:17;;;;;;;12.05;3.60;;;;;;;;;;5030709;28;20029;-67
2022/07/29 00:43:44;;;;;;;11.05;3.60;;;;;;;;;;5034037;28;20029;-67
2022/07/29 00:46:10;;;;;;;9.90;3.42;;;;;;;;;;5033929;28;20391;-66
2022/07/29 00:48:37;;;;;;;14.63;3.85;;;;;;;;;;5031399;28;20041;-67
2022/07/29 00:51:04;;;;;;;11.88;3.33;;;;;;;;;;5031400;28;20518;-69
2022/07/29 00:53:30;;;;;;;9.15;3.42;;;;;;;;;;5033760;28;20594;-67
2022/07/29 00:55:57;;;;;;;10.98;3.75;;;;;;;;;;5034880;28;20036;-67
2022/07/29 00:58:24;;;;;;;9.88;3.40;;;;;;;;;;5013602;28;20033;-67
2022/07/29 01:00:50;;;;;;;12.45;3.88;;;;;;;;;;5014033;28;20037;-67
2022/07/29 01:03:16;;;;;;;11.57;3.47;;;;;;;;;;5014288;28;20143;-66
2022/07/29 01:05:43;;;;;;;10.93;3.53;;;;;;;;;;5032522;28;20527;-67
2022/07/29 01:08:11;;;;;;;12.65;4.10;;;;;;;;;;5034240;28;20029;-67
2022/07/29 01:10:38;;;;;;;10.80;3.53;;;;;;;;;;5034689;28;20094;-67
2022/07/29 01:13:04;;;;;;;12.35;3.70;;;;;;;;;;5010368;28;20095;-67
2022/07/29 01:15:30;;;;;;;11.68;3.42;;;;;;;;;;5033004;28;20469;-67
2022/07/29 01:18:17;;;;;;;11.32;3.80;;;;;;;;;;5009857;28;20033;-66
2022/07/29 01:21:02;;;;;;;13.00;3.85;;;;;;;;;;5031165;28;20574;-67
2022/07/29 01:23:31;;;;;;;11.10;3.45;;;;;;;;;;5032117;28;20110;-67
2022/07/29 01:26:03;;;;;;;10.02;3.38;;;;;;;;;;5028715;28;20033;-66
2022/07/29 01:28:32;;;;;;;10.00;3.83;;;;;;;;;;5034263;28;20037;-67
2022/07/29 01:30:59;;;;;;;13.93;4.10;;;;;;;;;;5031792;28;20483;-67
2022/07/29 01:36:13;;;;;;;11.27;3.78;;;;;;;;;;5031063;28;20035;-67
2022/07/29 01:38:41;;;;;;;12.40;3.55;;;;;;;;;;5030585;28;20033;-67
2022/07/29 01:41:13;;;;;;;8.85;3.22;;;;;;;;;;5029710;28;20504;-67
2022/07/29 01:44:00;;;;;;;10.25;3.80;;;;;;;;;;5012182;28;20060;-67
2022/07/29 01:46:36;;;;;;;13.05;3.65;;;;;;;;;;5011057;28;20017;-67
2022/07/29 01:49:22;;;;;;;11.30;3.58;;;;;;;;;;5014052;28;20242;-67
2022/07/29 01:51:51;;;;;;;11.23;3.40;;;;;;;;;;5017924;28;20303;-67
2022/07/29 01:54:35;;;;;;;11.38;3.75;;;;;;;;;;5025809;28;20463;-69
2022/07/29 01:57:02;;;;;;;10.02;3.38;;;;;;;;;;5028530;28;20037;-67
2022/07/29 01:59:29;;;;;;;9.75;3.90;;;;;;;;;;5031094;28;20654;-68
2022/07/29 02:01:57;;;;;;;11.32;3.50;;;;;;;;;;5029916;28;20044;-67
2022/07/29 02:04:24;;;;;;;13.25;3.30;;;;;;;;;;5029490;28;20223;-67
2022/07/29 02:06:51;;;;;;;11.85;3.28;;;;;;;;;;5030258;28;20107;-67
2022/07/29 02:09:18;;;;;;;12.10;3.58;;;;;;;;;;5028489;28;20029;-68
2022/07/29 02:11:52;;;;;;;12.52;3.50;;;;;;;;;;5034103;28;20036;-67
2022/07/29 02:14:19;;;;;;;10.30;3.70;;;;;;;;;;5027161;28;20436;-67
2022/07/29 02:16:45;;;;;;;11.00;3.47;;;;;;;;;;5026252;28;20416;-67
2022/07/29 02:19:13;;;;;;;13.18;3.63;;;;;;;;;;5024311;28;20598;-67
2022/07/29 02:21:39;;;;;;;13.32;3.90;;;;;;;;;;5030274;28;20037;-67
2022/07/29 02:24:05;;;;;;;11.68;3.78;;;;;;;;;;5030079;28;20048;-67
2022/07/29 02:26:33;;;;;;;13.15;4.05;;;;;;;;;;5026886;28;20894;-66
2022/07/29 02:29:00;;;;;;;9.90;3.47;;;;;;;;;;5024168;28;20459;-66
2022/07/29 02:31:29;;;;;;;12.27;4.03;;;;;;;;;;5032253;28;20064;-67
2022/07/29 02:33:56;;;;;;;11.05;3.80;;;;;;;;;;5030964;28;20051;-67
2022/07/29 02:36:24;;;;;;;13.90;3.58;;;;;;;;;;5028730;28;20473;-67
2022/07/29 02:38:50;;;;;;;10.98;3.50;;;;;;;;;;5029113;28;20083;-67
2022/07/29 02:41:29;;;;;;;13.10;3.40;;;;;;;;;;5029425;28;20035;-67
2022/07/29 02:43:56;;;;;;;12.90;3.95;;;;;;;;;;5027088;28;20135;-66
2022/07/29 02:46:28;;;;;;;11.40;3.80;;;;;;;;;;5031391;28;20360;-66
2022/07/29 02:49:14;;;;;;;11.20;3.63;;;;;;;;;;5028802;28;20270;-67
2022/07/29 02:52:02;;;;;;;14.98;4.20;;;;;;;;;;5029684;28;20059;-67
2022/07/29 02:54:38;;;;;;;12.45;3.88;;;;;;;;;;5014567;28;20036;-67
2022/07/29 02:57:06;;;;;;;13.38;3.67;;;;;;;;;;5026583;28;20143;-67
2022/07/29 02:59:34;;;;;;;10.23;4.05;;;;;;;;;;5031189;28;20094;-67
2022/07/29 03:02:03;;;;;;;12.27;3.97;;;;;;;;;;5029289;28;20059;-66
2022/07/29 03:04:30;;;;;;;11.95;4.03;;;;;;;;;;5031539;28;20408;-68
2022/07/29 03:06:59;;;;;;;14.15;4.05;;;;;;;;;;5032056;28;20067;-68
2022/07/29 03:09:26;;;;;;;11.98;3.83;;;;;;;;;;5031873;28;20025;-68
2022/07/29 03:11:54;;;;;;;12.10;3.60;;;;;;;;;;5030430;28;20032;-68
2022/07/29 03:14:20;;;;;;;13.57;3.75;;;;;;;;;;5013480;28;20610;-67
2022/07/29 03:16:46;;;;;;;13.48;3.53;;;;;;;;;;5030320;28;20036;-68
2022/07/29 03:19:13;;;;;;;15.30;4.07;;;;;;;;;;5029824;28;20443;-68
2022/07/29 03:21:39;;;;;;;10.55;3.45;;;;;;;;;;5030764;28;20041;-68
2022/07/29 03:24:05;;;;;;;13.68;3.80;;;;;;;;;;5031157;28;20477;-68
2022/07/29 03:26:31;;;;;;;8.98;3.33;;;;;;;;;;5031116;28;20592;-68
2022/07/29 03:28:58;;;;;;;14.02;4.00;;;;;;;;;;5031565;28;20029;-68
2022/07/29 03:31:24;;;;;;;12.13;3.60;;;;;;;;;;5033469;28;20119;-68
2022/07/29 03:33:50;;;;;;;11.43;3.47;;;;;;;;;;5033751;28;20028;-68
2022/07/29 03:36:16;;;;;;;12.52;3.78;;;;;;;;;;5028827;28;20592;-68
2022/07/29 03:38:44;;;;;;;11.07;3.08;;;;;;;;;;5010931;28;20067;-68
2022/07/29 03:41:11;;;;;;;9.73;3.58;;;;;;;;;;5025281;28;20037;-67
2022/07/29 03:43:38;;;;;;;12.02;3.75;;;;;;;;;;5033025;28;20028;-68
2022/07/29 03:46:07;;;;;;;12.70;4.20;;;;;;;;;;5028750;28;20409;-68
2022/07/29 03:48:35;;;;;;;9.13;3.38;;;;;;;;;;5031136;28;20079;-68
2022/07/29 03:51:01;;;;;;;11.65;3.83;;;;;;;;;;5010109;28;20562;-68
2022/07/29 03:53:28;;;;;;;11.02;3.80;;;;;;;;;;5028435;28;20429;-67
2022/07/29 03:55:55;;;;;;;9.48;3.25;;;;;;;;;;5028984;28;20037;-67
2022/07/29 03:58:21;;;;;;;8.85;3.28;;;;;;;;;;5031294;28;20071;-67
2022/07/29 04:00:47;;;;;;;10.38;3.88;;;;;;;;;;5032778;28;20040;-68
2022/07/29 04:03:14;;;;;;;11.70;3.85;;;;;;;;;;5030001;28;20456;-68
2022/07/29 04:05:40;;;;;;;13.95;3.78;;;;;;;;;;5034029;28;20115;-67
2022/07/29 04:08:06;;;;;;;7.88;3.10;;;;;;;;;;5031017;28;20660;-67
2022/07/29 04:10:32;;;;;;;9.90;3.33;;;;;;;;;;5040368;28;20055;-67
2022/07/29 04:12:59;;;;;;;11.45;3.53;;;;;;;;;;5031632;28;20090;-67
2022/07/29 04:15:27;;;;;;;11.15;3.22;;;;;;;;;;5031119;28;20100;-67
2022/07/29 04:17:53;;;;;;;15.00;3.45;;;;;;;;;;5033749;28;20043;-67
2022/07/29 04:20:19;;;;;;;9.95;3.40;;;;;;;;;;5031567;28;20080;-67
2022/07/29 04:22:45;;;;;;;10.52;3.38;;;;;;;;;;5031862;28;20037;-67
2022/07/29 04:25:11;;;;;;;12.50;3.70;;;;;;;;;;5039856;28;20086;-67
2022/07/29 04:27:59;;;;;;;13.55;3.72;;;;;;;;;;5032459;28;20044;-67
2022/07/29 04:30:23;;;;;;;13.75;3.80;;;;;;;;;;5033447;28;20043;-67
2022/07/29 04:32:49;;;;;;;9.52;3.58;;;;;;;;;;5033712;28;20496;-67
2022/07/29 04:35:15;;;;;;;13.73;4.38;;;;;;;;;;5028837;28;20033;-67
2022/07/29 04:37:41;;;;;;;14.68;4.38;;;;;;;;;;5032390;28;20037;-67
2022/07/29 04:40:08;;;;;;;13.65;4.18;;;;;;;;;;5028362;28;20033;-65
2022/07/29 04:42:34;;;;;;;16.00;3.90;;;;;;;;;;5032474;28;20048;-66
2022/07/29 04:45:00;;;;;;;19.20;4.28;;;;;;;;;;5026436;28;20757;-66
2022/07/29 04:47:26;;;;;;;15.77;3.92;;;;;;;;;;5032413;28;20036;-66
2022/07/29 04:49:52;;;;;;;13.25;4.15;;;;;;;;;;5037833;28;20492;-66
2022/07/29 04:52:18;;;;;;;12.45;3.53;;;;;;;;;;5028199;28;20506;-66
2022/07/29 04:54:44;;;;;;;16.23;4.38;;;;;;;;;;5030054;28;20029;-66
2022/07/29 04:57:10;;;;;;;13.30;3.83;;;;;;;;;;5029131;28;20274;-66
2022/07/29 04:59:36;;;;;;;12.45;3.53;;;;;;;;;;5020712;28;20029;-66
2022/07/29 05:02:02;;;;;;;10.85;3.45;;;;;;;;;;5030181;28;20091;-66
2022/07/29 05:04:28;;;;;;;13.23;3.33;;;;;;;;;;5029539;28;20029;-66
2022/07/29 05:06:55;;;;;;;11.43;3.42;;;;;;;;;;5031044;28;20485;-67
2022/07/29 05:09:21;;;;;;;14.73;4.00;;;;;;;;;;5028240;28;20052;-67
2022/07/29 05:11:47;;;;;;;11.05;3.75;;;;;;;;;;5029972;28;20037;-67
2022/07/29 05:14:13;;;;;;;13.52;5.43;;;;;;;;;;5028222;28;20025;-66
2022/07/29 05:16:40;;;;;;;13.27;4.90;;;;;;;;;;5030937;28;20412;-67
2022/07/29 05:19:06;;;;;;;14.27;4.30;;;;;;;;;;5032464;28;20147;-65
2022/07/29 05:21:32;;;;;;;13.95;4.43;;;;;;;;;;5013251;28;20095;-65
2022/07/29 05:23:58;;;;;;;14.52;3.85;;;;;;;;;;5029190;28;20033;-66
2022/07/29 05:26:24;;;;;;;17.88;4.07;;;;;;;;;;5011350;28;20441;-66
2022/07/29 05:28:50;;;;;;;11.32;3.92;;;;;;;;;;5031693;28;20031;-66
2022/07/29 05:31:16;;;;;;;19.52;4.18;;;;;;;;;;5012314;28;20086;-66
2022/07/29 05:33:43;;;;;;;14.20;3.88;;;;;;;;;;5031099;28;20477;-67
2022/07/29 05:36:09;;;;;;;15.43;3.92;;;;;;;;;;5028884;28;20134;-66
2022/07/29 05:38:35;;;;;;;18.23;4.00;;;;;;;;;;5028630;28;20033;-66
2022/07/29 05:41:01;;;;;;;14.95;3.85;;;;;;;;;;5011718;28;20128;-66
2022/07/29 05:43:28;;;;;;;15.38;4.15;;;;;;;;;;5009137;28;21207;-66
2022/07/29 05:45:54;;;;;;;14.45;3.85;;;;;;;;;;5029713;28;20188;-67
2022/07/29 05:48:20;;;;;;;14.93;3.80;;;;;;;;;;5010651;28;20776;-66
2022/07/29 05:50:46;;;;;;;13.90;3.80;;;;;;;;;;5028683;28;20033;-67
2022/07/29 05:53:12;;;;;;;10.02;3.70;;;;;;;;;;5028191;28;20585;-66
2022/07/29 05:55:39;;;;;;;14.70;3.78;;;;;;;;;;5017550;28;20039;-66
2022/07/29 05:58:05;;;;;;;11.63;3.50;;;;;;;;;;5028974;28;20033;-67
2022/07/29 06:00:31;;;;;;;10.82;3.70;;;;;;;;;;5030358;28;20045;-66
2022/07/29 06:02:57;;;;;;;13.93;3.83;;;;;;;;;;5029301;28;20384;-66
2022/07/29 06:05:23;;;;;;;10.98;3.35;;;;;;;;;;5031494;28;20767;-66
2022/07/29 06:07:50;;;;;;;15.13;3.63;;;;;;;;;;5031897;28;20033;-66
2022/07/29 06:10:16;;;;;;;14.60;3.47;;;;;;;;;;5024842;28;20029;-67
2022/07/29 06:12:42;;;;;;;13.30;3.75;;;;;;;;;;5028611;28;20025;-67
2022/07/29 06:15:08;;;;;;;10.85;3.55;;;;;;;;;;5025724;28;20029;-66
2022/07/29 06:17:34;;;;;;;11.18;3.30;;;;;;;;;;5024612;28;20176;-67
2022/07/29 06:20:00;;;;;;;13.20;4.18;;;;;;;;;;5011680;28;20502;-67
2022/07/29 06:22:26;;;;;;;11.40;3.67;;;;;;;;;;5011855;28;20079;-67
2022/07/29 06:24:53;;;;;;;11.35;3.60;;;;;;;;;;5008482;28;20115;-67
2022/07/29 06:27:19;;;;;;;15.77;3.60;;;;;;;;;;5026445;28;20051;-67
2022/07/29 06:29:45;;;;;;;15.05;3.63;;;;;;;;;;5030389;28;20033;-67
2022/07/29 06:32:11;;;;;;;10.68;3.40;;;;;;;;;;5028752;28;20484;-66
2022/07/29 06:34:37;;;;;;;17.40;4.10;;;;;;;;;;5029894;28;20072;-67
2022/07/29 06:37:07;;;;;;;11.38;3.83;;;;;;;;;;5027512;28;20557;-66
2022/07/29 06:39:35;;;;;;;13.25;3.90;;;;;;;;;;5026149;28;20035;-67
2022/07/29 06:42:01;;;;;;;17.38;4.43;;;;;;;;;;5016358;28;20758;-67
2022/07/29 06:44:27;;;;;;;14.43;4.93;;;;;;;;;;5029667;28;20036;-66
2022/07/29 06:46:54;;;;;;;17.10;4.88;;;;;;;;;;5012313;28;20407;-66
2022/07/29 06:49:20;;;;;;;11.68;3.90;;;;;;;;;;5029769;28;20021;-66
2022/07/29 06:51:46;;;;;;;16.25;4.45;;;;;;;;;;5027999;28;20053;-67
2022/07/29 06:54:12;;;;;;;17.75;5.03;;;;;;;;;;5029090;28;20037;-66
2022/07/29 06:56:41;;;;;;;12.82;5.28;;;;;;;;;;5029336;28;20500;-67
2022/07/29 06:59:11;;;;;;;12.45;6.32;;;;;;;;;;5026963;28;20750;-66
2022/07/29 07:01:38;;;;;;;11.25;3.97;;;;;;;;;;5028904;28;20505;-66
2022/07/29 07:04:04;;;;;;;14.50;4.93;;;;;;;;;;5010715;28;20477;-66
2022/07/29 07:06:30;;;;;;;13.48;4.18;;;;;;;;;;5030116;28;20021;-66
2022/07/29 07:08:56;;;;;;;13.80;4.10;;;;;;;;;;5028051;28;20037;-67
2022/07/29 07:11:23;;;;;;;10.68;3.75;;;;;;;;;;5028957;28;20123;-67
2022/07/29 07:13:49;;;;;;;11.63;3.75;;;;;;;;;;5028872;28;20040;-66
2022/07/29 07:16:15;;;;;;;13.57;4.03;;;;;;;;;;5027913;28;20086;-67
2022/07/29 07:18:41;;;;;;;11.68;3.53;;;;;;;;;;5029484;28;20453;-67
2022/07/29 07:21:08;;;;;;;15.77;3.63;;;;;;;;;;5026720;28;20033;-67
2022/07/29 07:23:34;;;;;;;12.40;3.78;;;;;;;;;;5027290;28;20190;-67
2022/07/29 07:26:00;;;;;;;11.95;3.85;;;;;;;;;;5027464;28;20312;-67
2022/07/29 07:28:26;;;;;;;11.00;3.50;;;;;;;;;;5029612;28;20228;-67
2022/07/29 07:30:52;;;;;;;13.48;3.50;;;;;;;;;;5007448;28;20271;-67
2022/07/29 07:33:19;;;;;;;10.88;3.45;;;;;;;;;;5013358;28;20025;-67
2022/07/29 07:35:45;;;;;;;11.55;3.30;;;;;;;;;;5032118;28;20575;-66
2022/07/29 07:38:11;;;;;;;11.07;3.15;;;;;;;;;;5030336;28;20930;-67
2022/07/29 07:40:37;;;;;;;12.23;3.25;;;;;;;;;;5017482;28;20036;-67
2022/07/29 07:43:03;;;;;;;9.93;3.13;;;;;;;;;;5031342;28;20115;-66
2022/07/29 07:45:29;;;;;;;11.32;3.45;;;;;;;;;;5033381;28;20040;-66
2022/07/29 07:47:55;;;;;;;9.05;2.80;;;;;;;;;;5029432;28;20044;-67
2022/07/29 07:50:21;;;;;;;9.23;2.95;;;;;;;;;;5031952;28;20051;-67
2022/07/29 07:52:49;;;;;;;9.43;2.90;;;;;;;;;;5031176;28;20426;-67
2022/07/29 07:55:15;;;;;;;11.98;3.35;;;;;;;;;;5030742;28;20059;-67
2022/07/29 07:57:41;;;;;;;9.07;3.22;;;;;;;;;;5031443;28;20060;-67
2022/07/29 08:00:07;;;;;;;10.25;2.92;;;;;;;;;;5030174;28;20048;-67
2022/07/29 08:02:34;;;;;;;10.60;2.97;;;;;;;;;;5033369;28;20045;-67
2022/07/29 08:05:00;;;;;;;13.48;3.33;;;;;;;;;;5031545;28;20109;-67
2022/07/29 08:07:26;;;;;;;13.77;3.33;;;;;;;;;;5016074;28;20131;-67
2022/07/29 08:09:52;;;;;;;11.55;2.90;;;;;;;;;;5032813;28;20103;-67
2022/07/29 08:12:18;;;;;;;10.00;3.33;;;;;;;;;;5030927;28;20072;-67
2022/07/29 08:14:44;;;;;;;13.98;3.55;;;;;;;;;;5030423;28;20123;-67
2022/07/29 08:17:10;;;;;;;16.60;3.90;;;;;;;;;;5031309;28;20033;-67
2022/07/29 08:19:37;;;;;;;13.05;3.65;;;;;;;;;;5031821;28;20625;-67
2022/07/29 08:22:03;;;;;;;14.30;3.38;;;;;;;;;;5011734;28;20512;-67
2022/07/29 08:24:52;;;;;;;10.48;3.50;;;;;;;;;;5031168;28;20018;-67
2022/07/29 08:27:19;;;;;;;12.60;3.10;;;;;;;;;;5028998;28;20029;-67
2022/07/29 08:29:45;;;;;;;13.45;4.15;;;;;;;;;;5032557;28;20025;-67
2022/07/29 08:32:11;;;;;;;10.30;3.80;;;;;;;;;;5033097;28;20029;-67
2022/07/29 08:34:37;;;;;;;8.48;2.78;;;;;;;;;;5031340;28;20129;-67
2022/07/29 08:37:03;;;;;;;9.73;3.08;;;;;;;;;;5010223;28;20040;-67
2022/07/29 08:39:29;;;;;;;13.30;2.90;;;;;;;;;;5031172;28;20851;-67
2022/07/29 08:41:56;;;;;;;9.60;2.63;;;;;;;;;;5012212;28;20784;-67
2022/07/29 08:44:22;;;;;;;10.75;3.20;;;;;;;;;;5031174;28;20029;-67
2022/07/29 08:46:49;;;;;;;11.32;3.20;;;;;;;;;;5031808;28;20239;-67
2022/07/29 08:49:15;;;;;;;11.63;3.00;;;;;;;;;;5029568;28;20127;-67
2022/07/29 08:51:43;;;;;;;9.27;2.75;;;;;;;;;;5031701;28;20503;-67
2022/07/29 08:54:10;;;;;;;12.30;3.28;;;;;;;;;;5029344;28;20044;-67
2022/07/29 08:56:36;;;;;;;8.82;2.80;;;;;;;;;;5029369;28;20032;-66
2022/07/29 08:59:05;;;;;;;11.27;3.13;;;;;;;;;;5030405;28;20033;-66
2022/07/29 09:01:34;;;;;;;12.77;3.30;;;;;;;;;;5019698;28;20478;-66
2022/07/29 09:04:02;;;;;;;14.75;3.22;;;;;;;;;;5032260;28;20790;-66
2022/07/29 09:06:32;;;;;;;11.48;3.05;;;;;;;;;;5032769;28;20027;-66
2022/07/29 09:08:59;;;;;;;13.65;3.08;;;;;;;;;;5015117;28;20029;-66
2022/07/29 09:11:26;;;;;;;13.30;3.30;;;;;;;;;;5033623;28;20580;-66
2022/07/29 09:13:52;;;;;;;13.23;3.10;;;;;;;;;;5035086;28;20373;-66
2022/07/29 09:16:18;;;;;;;11.52;3.17;;;;;;;;;;5028177;28;20477;-66
2022/07/29 09:18:45;;;;;;;11.32;3.20;;;;;;;;;;5015468;28;20048;-66
2022/07/29 09:24:15;;;;;;;10.57;2.78;;;;;;;;;;5029292;28;20653;-66
2022/07/29 09:26:43;;;;;;;13.57;3.20;;;;;;;;;;5013839;28;20550;-66
2022/07/29 09:29:19;;;;;;;11.13;3.10;;;;;;;;;;5010922;28;20041;-66
2022/07/29 09:31:46;;;;;;;11.82;3.25;;;;;;;;;;5029326;28;20039;-66
2022/07/29 09:34:14;;;;;;;14.18;3.40;;;;;;;;;;5029136;28;20325;-66
2022/07/29 09:36:43;;;;;;;11.65;3.03;;;;;;;;;;5031009;28;20741;-66
2022/07/29 09:39:09;;;;;;;10.57;3.33;;;;;;;;;;5027389;28;20389;-66
2022/07/29 09:41:45;;;;;;;12.18;3.20;;;;;;;;;;5030681;28;20257;-66
2022/07/29 09:44:12;;;;;;;10.93;3.20;;;;;;;;;;5028918;28;20032;-66
2022/07/29 09:46:38;;;;;;;11.98;3.17;;;;;;;;;;5019810;28;20106;-67
2022/07/29 09:49:12;;;;;;;13.40;3.38;;;;;;;;;;5011891;28;20153;-67
2022/07/29 09:51:38;;;;;;;10.75;3.00;;;;;;;;;;5027281;28;20045;-67
2022/07/29 09:54:23;;;;;;;8.98;2.85;;;;;;;;;;5028478;28;20045;-66
2022/07/29 09:56:49;;;;;;;13.90;3.30;;;;;;;;;;5028491;28;20032;-67
2022/07/29 09:59:15;;;;;;;17.23;4.05;;;;;;;;;;5011550;28;20040;-66
2022/07/29 10:01:41;;;;;;;12.98;3.20;;;;;;;;;;5027598;28;20037;-66
2022/07/29 10:04:08;;;;;;;12.65;3.08;;;;;;;;;;5028249;28;20115;-66
2022/07/29 10:06:34;;;;;;;11.20;3.35;;;;;;;;;;5029846;28;20473;-66
2022/07/29 10:09:10;;;;;;;11.60;2.95;;;;;;;;;;5008466;28;20021;-66
2022/07/29 10:11:36;;;;;;;9.80;2.92;;;;;;;;;;5029278;28;20029;-66
2022/07/29 10:14:03;;;;;;;10.88;3.28;;;;;;;;;;5023778;28;20032;-66
2022/07/29 10:16:32;;;;;;;13.95;3.40;;;;;;;;;;5028580;28;20124;-66
2022/07/29 10:19:01;;;;;;;15.85;3.40;;;;;;;;;;5026699;28;20338;-66
2022/07/29 10:21:28;;;;;;;12.68;3.15;;;;;;;;;;5027775;28;20826;-66
2022/07/29 10:23:54;;;;;;;15.55;3.13;;;;;;;;;;5012702;28;20056;-66
2022/07/29 10:26:21;;;;;;;22.42;4.03;;;;;;;;;;5026892;28;20052;-65
2022/07/29 10:28:47;;;;;;;13.07;3.03;;;;;;;;;;5031331;28;20103;-66
2022/07/29 10:31:22;;;;;;;15.52;3.20;;;;;;;;;;5029933;28;20029;-65
2022/07/29 10:34:24;;;;;;;11.30;3.15;;;;;;;;;;5032468;28;20040;-66
2022/07/29 10:37:08;;;;;;;11.73;3.25;;;;;;;;;;4933223;28;20041;-67
2022/07/29 10:39:53;;;;;;;13.10;3.42;;;;;;;;;;4946058;28;20072;-66
2022/07/29 10:42:20;;;;;;;10.95;3.13;;;;;;;;;;4947812;28;20041;-67
2022/07/29 10:44:46;;;;;;;12.35;3.05;;;;;;;;;;4947703;28;20373;-66
2022/07/29 10:47:22;;;;;;;20.17;3.72;;;;;;;;;;4944238;28;20039;-66
2022/07/29 10:50:02;;;;;;;12.25;3.00;;;;;;;;;;4946098;28;20493;-66
2022/07/29 10:52:47;;;;;;;14.57;3.25;;;;;;;;;;4961414;28;20156;-66
2022/07/29 10:55:34;;;;;;;13.80;2.95;;;;;;;;;;4962928;28;20038;-66
2022/07/29 10:58:12;;;;;;;23.90;3.97;;;;;;;;;;4964639;28;20484;-66
2022/07/29 11:00:38;;;;;;;12.82;3.28;;;;;;;;;;4948305;28;20049;-66
2022/07/29 11:03:04;;;;;;;43.22;6.28;;;;;;;;;;4965527;28;20439;-67
2022/07/29 11:05:31;;;;;;;17.55;3.60;;;;;;;;;;4966959;28;20038;-66
2022/07/29 11:08:19;;;;;;;11.95;3.00;;;;;;;;;;4948729;28;20057;-66
2022/07/29 11:10:46;;;;;;;11.20;2.88;;;;;;;;;;4992070;28;20128;-66
2022/07/29 11:13:12;;;;;;;17.38;3.13;;;;;;;;;;5026535;28;20548;-67
2022/07/29 11:15:57;;;;;;;16.65;2.97;;;;;;;;;;5025713;28;20041;-67
2022/07/29 11:18:23;;;;;;;;;;;;;;;;;;5025530;28;20094;-66
2022/07/29 11:20:50;;;;;;;13.68;2.95;;;;;;;;;;5027818;28;19920;-66
2022/07/29 11:23:25;;;;;;;13.75;3.10;;;;;;;;;;5025516;28;20079;-66
2022/07/29 11:26:13;;;;;;;11.45;2.83;;;;;;;;;;5027578;28;20357;-66
2022/07/29 11:28:49;;;;;;;17.55;3.22;;;;;;;;;;5028073;28;20025;-67
2022/07/29 11:31:16;;;;;;;17.70;3.53;;;;;;;;;;5026273;28;20033;-67
2022/07/29 11:33:43;;;;;;;16.33;3.13;;;;;;;;;;5024890;28;20025;-65
2022/07/29 11:36:10;;;;;;;16.27;3.10;;;;;;;;;;5025477;28;20067;-69
2022/07/29 11:38:36;;;;;;;11.20;3.03;;;;;;;;;;5024328;28;20230;-67
2022/07/29 11:41:29;;;;;;;11.07;3.13;;;;;;;;;;5022950;28;20032;-67
2022/07/29 11:43:59;;;;;;;12.15;3.40;;;;;;;;;;5021307;28;20107;-65
2022/07/29 11:46:44;;;;;;;15.05;4.07;;;;;;;;;;5027878;28;20033;-65
2022/07/29 11:49:10;;;;;;;11.63;2.92;;;;;;;;;;5021723;28;20087;-67
2022/07/29 11:51:37;;;;;;;15.43;3.33;;;;;;;;;;5023986;28;20721;-68
2022/07/29 11:54:04;;;;;;;16.55;3.33;;;;;;;;;;5021324;28;20029;-67
2022/07/29 11:56:32;;;;;;;8.38;2.85;;;;;;;;;;5024203;28;20480;-67
2022/07/29 11:59:10;;;;;;;9.93;2.90;;;;;;;;;;5023837;28;20039;-67
2022/07/29 12:01:36;;;;;;;13.27;3.38;;;;;;;;;;5026177;28;20049;-67
2022/07/29 12:04:04;;;;;;;14.52;3.38;;;;;;;;;;5025210;28;20435;-67
2022/07/29 12:06:30;;;;;;;15.00;3.50;;;;;;;;;;5008539;28;20025;-67
2022/07/29 12:08:56;;;;;;;11.02;3.38;;;;;;;;;;5025889;28;20302;-68
2022/07/29 12:11:22;;;;;;;16.45;3.28;;;;;;;;;;5027280;28;20064;-68
2022/07/29 12:13:49;;;;;;;11.88;2.85;;;;;;;;;;5023725;28;20036;-68
2022/07/29 12:16:15;;;;;;;10.95;2.70;;;;;;;;;;5007717;28;24007;-68
2022/07/29 12:18:41;;;;;;;18.83;3.58;;;;;;;;;;5009734;28;20036;-68
2022/07/29 12:21:08;;;;;;;13.25;2.72;;;;;;;;;;5027823;28;20163;-68
2022/07/29 12:23:34;;;;;;;12.65;3.05;;;;;;;;;;5031874;28;20377;-68
2022/07/29 12:26:01;;;;;;;8.55;2.58;;;;;;;;;;5032344;28;20031;-68
2022/07/29 12:28:27;;;;;;;10.70;2.72;;;;;;;;;;5020791;28;20036;-68
2022/07/29 12:30:53;;;;;;;12.98;2.90;;;;;;;;;;5032891;28;20065;-68
2022/07/29 12:33:21;;;;;;;12.35;2.80;;;;;;;;;;5030841;28;20562;-68
2022/07/29 12:35:49;;;;;;;12.43;2.78;;;;;;;;;;5030144;28;20045;-69
2022/07/29 12:38:15;;;;;;;10.65;2.60;;;;;;;;;;5030803;28;20846;-67
2022/07/29 12:40:42;;;;;;;11.90;2.92;;;;;;;;;;5028254;28;20040;-67
2022/07/29 12:43:09;;;;;;;10.32;2.47;;;;;;;;;;5027492;28;20371;-67
2022/07/29 12:45:35;;;;;;;16.63;2.88;;;;;;;;;;5028802;28;20386;-67
2022/07/29 12:48:02;;;;;;;11.10;3.00;;;;;;;;;;5026787;28;20102;-67
2022/07/29 12:50:28;;;;;;;12.70;2.90;;;;;;;;;;5027496;28;20025;-67
2022/07/29 12:52:54;;;;;;;10.35;2.55;;;;;;;;;;5027965;28;20250;-67
2022/07/29 12:55:40;;;;;;;11.15;2.65;;;;;;;;;;5010556;28;20440;-66
2022/07/29 12:58:06;;;;;;;16.98;3.17;;;;;;;;;;5026863;28;20103;-66
2022/07/29 13:00:32;;;;;;;10.65;2.72;;;;;;;;;;5013793;28;20466;-67
2022/07/29 13:02:59;;;;;;;10.70;2.88;;;;;;;;;;5029149;28;20483;-66
2022/07/29 13:05:39;;;;;;;10.75;2.67;;;;;;;;;;5032679;28;20040;-67
2022/07/29 13:08:12;;;;;;;9.98;2.90;;;;;;;;;;5032124;28;20025;-67
2022/07/29 13:10:38;;;;;;;10.55;2.67;;;;;;;;;;5032309;28;20029;-66
2022/07/29 13:13:11;;;;;;;11.27;2.83;;;;;;;;;;5029337;28;20108;-66
2022/07/29 13:15:39;;;;;;;15.07;3.33;;;;;;;;;;5033405;28;20029;-67
2022/07/29 13:18:05;;;;;;;13.07;3.08;;;;;;;;;;5030976;28;20036;-68
2022/07/29 13:20:32;;;;;;;14.10;2.80;;;;;;;;;;5030753;28;20545;-67
2022/07/29 13:22:59;;;;;;;8.43;2.55;;;;;;;;;;5030291;28;20040;-67
2022/07/29 13:25:26;;;;;;;11.63;2.80;;;;;;;;;;5032250;28;20159;-67
2022/07/29 13:27:54;;;;;;;12.77;2.80;;;;;;;;;;5031441;28;20360;-67
2022/07/29 13:30:21;;;;;;;10.40;2.70;;;;;;;;;;5014550;28;20033;-67
2022/07/29 13:32:47;;;;;;;10.52;2.78;;;;;;;;;;5015053;28;20036;-67
2022/07/29 13:35:13;;;;;;;11.68;2.90;;;;;;;;;;5032270;28;20029;-67
2022/07/29 13:37:40;;;;;;;9.20;2.70;;;;;;;;;;5013044;28;20037;-67
2022/07/29 13:40:09;;;;;;;10.00;2.13;;;;;;;;;;5010928;28;20505;-67
2022/07/29 13:42:35;;;;;;;10.75;2.67;;;;;;;;;;5031744;28;20036;-67
2022/07/29 13:45:02;;;;;;;13.65;2.97;;;;;;;;;;5028579;28;20024;-67
2022/07/29 13:47:31;;;;;;;13.60;3.15;;;;;;;;;;5028699;28;20025;-67
2022/07/29 13:49:57;;;;;;;10.65;2.90;;;;;;;;;;5027621;28;20025;-67
2022/07/29 13:52:23;;;;;;;10.05;2.40;;;;;;;;;;5029180;28;20061;-67
2022/07/29 13:54:49;;;;;;;12.40;2.55;;;;;;;;;;5029759;28;20442;-67
2022/07/29 13:57:15;;;;;;;11.68;2.83;;;;;;;;;;5030160;28;21004;-67
2022/07/29 13:59:42;;;;;;;11.32;2.50;;;;;;;;;;5029783;28;20033;-66
2022/07/29 14:02:08;;;;;;;10.13;2.80;;;;;;;;;;5028382;28;20488;-67
2022/07/29 14:04:35;;;;;;;10.77;2.45;;;;;;;;;;5009453;28;20516;-67
2022/07/29 14:07:01;;;;;;;10.02;2.40;;;;;;;;;;5028249;28;20017;-66
2022/07/29 14:09:27;;;;;;;9.68;2.65;;;;;;;;;;5029183;28;20017;-67
2022/07/29 14:11:54;;;;;;;12.40;2.53;;;;;;;;;;5027350;28;20041;-67
2022/07/29 14:14:20;;;;;;;14.30;2.90;;;;;;;;;;5029653;28;20346;-67
2022/07/29 14:16:47;;;;;;;10.77;2.70;;;;;;;;;;5029576;28;20131;-67
2022/07/29 14:19:13;;;;;;;13.77;2.55;;;;;;;;;;5029151;28;20013;-67
2022/07/29 14:21:39;;;;;;;10.05;2.55;;;;;;;;;;5030874;28;20503;-66
2022/07/29 14:24:06;;;;;;;10.15;2.20;;;;;;;;;;5027179;28;20394;-66
2022/07/29 14:26:32;;;;;;;10.77;2.60;;;;;;;;;;5031065;28;20052;-67
2022/07/29 14:28:58;;;;;;;10.35;2.28;;;;;;;;;;5011964;28;20524;-67
2022/07/29 14:31:24;;;;;;;13.00;2.50;;;;;;;;;;5030337;28;20112;-67
2022/07/29 14:33:50;;;;;;;13.82;2.95;;;;;;;;;;5030452;28;20029;-67
2022/07/29 14:36:16;;;;;;;12.70;2.67;;;;;;;;;;5029296;28;20029;-67
2022/07/29 14:38:42;;;;;;;10.48;2.53;;;;;;;;;;5029751;28;20251;-67
2022/07/29 14:41:08;;;;;;;9.65;2.55;;;;;;;;;;5028894;28;20052;-67
2022/07/29 14:43:35;;;;;;;11.95;2.45;;;;;;;;;;5012332;28;20029;-67